sensor_id;sensor_type;location;lat;lon;timestamp;pressure;altitude;pressure_sealevel;temperature;humidity
48614;BME280;34408;51.426;5.444;2023-03-04T00:01:11;102585.19;;;7.86;51.96
48614;BME280;34408;51.426;5.444;2023-03-04T00:03:39;102588.72;;;7.86;52.29
48614;BME280;34408;51.426;5.444;2023-03-04T00:06:07;102579.00;;;7.85;52.44
48614;BME280;34408;51.426;5.444;2023-03-04T00:08:36;102581.69;;;7.85;52.18
48614;BME280;34408;51.426;5.444;2023-03-04T00:11:04;102592.41;;;7.85;52.44
48614;BME280;34408;51.426;5.444;2023-03-04T00:13:32;102585.53;;;7.82;52.65
48614;BME280;34408;51.426;5.444;2023-03-04T00:15:59;102580.16;;;7.82;52.09
48614;BME280;34408;51.426;5.444;2023-03-04T00:18:27;102582.16;;;7.80;52.43
48614;BME280;34408;51.426;5.444;2023-03-04T00:20:55;102574.13;;;7.80;52.91
48614;BME280;34408;51.426;5.444;2023-03-04T00:23:23;102575.97;;;7.80;52.98
48614;BME280;34408;51.426;5.444;2023-03-04T00:25:52;102572.47;;;7.79;53.12
48614;BME280;34408;51.426;5.444;2023-03-04T00:28:20;102569.63;;;7.81;52.79
48614;BME280;34408;51.426;5.444;2023-03-04T00:30:47;102568.78;;;7.80;53.00
48614;BME280;34408;51.426;5.444;2023-03-04T00:33:15;102574.97;;;7.81;52.68
48614;BME280;34408;51.426;5.444;2023-03-04T00:35:43;102575.13;;;7.79;52.35
48614;BME280;34408;51.426;5.444;2023-03-04T00:38:11;102573.31;;;7.80;52.98
48614;BME280;34408;51.426;5.444;2023-03-04T00:40:39;102572.63;;;7.78;52.70
48614;BME280;34408;51.426;5.444;2023-03-04T00:43:08;102573.63;;;7.77;52.80
48614;BME280;34408;51.426;5.444;2023-03-04T00:45:36;102569.09;;;7.77;53.08
48614;BME280;34408;51.426;5.444;2023-03-04T00:48:04;102574.63;;;7.76;53.46
48614;BME280;34408;51.426;5.444;2023-03-04T00:50:32;102575.78;;;7.73;53.03
48614;BME280;34408;51.426;5.444;2023-03-04T00:53:00;102562.41;;;7.73;53.44
48614;BME280;34408;51.426;5.444;2023-03-04T00:55:28;102566.91;;;7.73;53.67
48614;BME280;34408;51.426;5.444;2023-03-04T00:57:55;102572.28;;;7.73;53.28
48614;BME280;34408;51.426;5.444;2023-03-04T01:00:25;102572.44;;;7.71;53.53
48614;BME280;34408;51.426;5.444;2023-03-04T01:02:53;102572.59;;;7.70;53.32
48614;BME280;34408;51.426;5.444;2023-03-04T01:05:21;102576.94;;;7.71;53.03
48614;BME280;34408;51.426;5.444;2023-03-04T01:07:48;102580.47;;;7.71;53.18
48614;BME280;34408;51.426;5.444;2023-03-04T01:10:16;102581.28;;;7.72;53.97
48614;BME280;34408;51.426;5.444;2023-03-04T01:12:44;102582.97;;;7.73;53.73
48614;BME280;34408;51.426;5.444;2023-03-04T01:15:13;102578.47;;;7.73;53.46
48614;BME280;34408;51.426;5.444;2023-03-04T01:17:42;102573.94;;;7.74;53.17
48614;BME280;34408;51.426;5.444;2023-03-04T01:20:12;102578.13;;;7.76;53.46
48614;BME280;34408;51.426;5.444;2023-03-04T01:22:40;102582.81;;;7.74;53.15
48614;BME280;34408;51.426;5.444;2023-03-04T01:25:08;102578.31;;;7.75;53.60
48614;BME280;34408;51.426;5.444;2023-03-04T01:27:36;102582.81;;;7.74;52.97
48614;BME280;34408;51.426;5.444;2023-03-04T01:30:05;102577.47;;;7.74;53.96
48614;BME280;34408;51.426;5.444;2023-03-04T01:32:33;102574.09;;;7.72;53.55
48614;BME280;34408;51.426;5.444;2023-03-04T01:35:03;102570.59;;;7.72;53.96
48614;BME280;34408;51.426;5.444;2023-03-04T01:37:31;102571.44;;;7.72;53.63
48614;BME280;34408;51.426;5.444;2023-03-04T01:39:58;102568.91;;;7.71;53.29
48614;BME280;34408;51.426;5.444;2023-03-04T01:42:29;102557.53;;;7.69;54.14
48614;BME280;34408;51.426;5.444;2023-03-04T01:44:58;102554.03;;;7.68;53.79
48614;BME280;34408;51.426;5.444;2023-03-04T01:47:28;102550.81;;;7.65;53.83
48614;BME280;34408;51.426;5.444;2023-03-04T01:49:57;102563.38;;;7.64;54.52
48614;BME280;34408;51.426;5.444;2023-03-04T01:52:26;102545.47;;;7.65;54.20
48614;BME280;34408;51.426;5.444;2023-03-04T01:54:54;102544.47;;;7.66;54.15
48614;BME280;34408;51.426;5.444;2023-03-04T01:57:24;102555.50;;;7.63;54.04
48614;BME280;34408;51.426;5.444;2023-03-04T02:00:17;102548.31;;;7.63;53.58
48614;BME280;34408;51.426;5.444;2023-03-04T02:02:45;102537.78;;;7.62;54.12
48614;BME280;34408;51.426;5.444;2023-03-04T02:05:13;102546.31;;;7.65;53.95
48614;BME280;34408;51.426;5.444;2023-03-04T02:07:42;102533.78;;;7.66;54.16
48614;BME280;34408;51.426;5.444;2023-03-04T02:10:11;102535.59;;;7.65;54.17
48614;BME280;34408;51.426;5.444;2023-03-04T02:12:39;102529.25;;;7.66;54.02
48614;BME280;34408;51.426;5.444;2023-03-04T02:15:07;102531.78;;;7.68;53.39
48614;BME280;34408;51.426;5.444;2023-03-04T02:17:35;102522.75;;;7.69;53.96
48614;BME280;34408;51.426;5.444;2023-03-04T02:20:12;102530.78;;;7.69;54.33
48614;BME280;34408;51.426;5.444;2023-03-04T02:22:50;102524.59;;;7.68;53.63
48614;BME280;34408;51.426;5.444;2023-03-04T02:25:23;102528.09;;;7.69;53.61
48614;BME280;34408;51.426;5.444;2023-03-04T02:27:56;102530.94;;;7.67;54.42
48614;BME280;34408;51.426;5.444;2023-03-04T02:30:23;102518.88;;;7.63;53.52
48614;BME280;34408;51.426;5.444;2023-03-04T02:32:51;102515.53;;;7.61;53.92
48614;BME280;34408;51.426;5.444;2023-03-04T02:35:20;102511.84;;;7.62;54.31
48614;BME280;34408;51.426;5.444;2023-03-04T02:37:48;102523.91;;;7.66;53.59
48614;BME280;34408;51.426;5.444;2023-03-04T02:40:20;102515.03;;;7.66;54.76
48614;BME280;34408;51.426;5.444;2023-03-04T02:42:50;102515.03;;;7.66;54.13
48614;BME280;34408;51.426;5.444;2023-03-04T02:45:35;102517.88;;;7.64;54.42
48614;BME280;34408;51.426;5.444;2023-03-04T02:48:04;102509.00;;;7.64;54.83
48614;BME280;34408;51.426;5.444;2023-03-04T02:50:34;102509.00;;;7.64;54.65
48614;BME280;34408;51.426;5.444;2023-03-04T02:53:03;102501.97;;;7.63;54.83
48614;BME280;34408;51.426;5.444;2023-03-04T02:55:31;102499.31;;;7.63;54.29
48614;BME280;34408;51.426;5.444;2023-03-04T02:57:59;102504.50;;;7.64;54.86
48614;BME280;34408;51.426;5.444;2023-03-04T03:00:27;102497.47;;;7.63;54.32
48614;BME280;34408;51.426;5.444;2023-03-04T03:02:56;102497.63;;;7.62;54.85
48614;BME280;34408;51.426;5.444;2023-03-04T03:05:26;102494.97;;;7.62;54.82
48614;BME280;34408;51.426;5.444;2023-03-04T03:07:55;102502.16;;;7.61;54.93
48614;BME280;34408;51.426;5.444;2023-03-04T03:10:23;102496.13;;;7.59;54.83
48614;BME280;34408;51.426;5.444;2023-03-04T03:12:51;102491.59;;;7.60;54.69
48614;BME280;34408;51.426;5.444;2023-03-04T03:15:19;102498.78;;;7.59;54.73
48614;BME280;34408;51.426;5.444;2023-03-04T03:17:47;102492.44;;;7.60;54.37
48614;BME280;34408;51.426;5.444;2023-03-04T03:20:17;102491.59;;;7.60;54.32
48614;BME280;34408;51.426;5.444;2023-03-04T03:22:45;102493.09;;;7.54;55.01
48614;BME280;34408;51.426;5.444;2023-03-04T03:25:14;102491.94;;;7.57;54.99
48614;BME280;34408;51.426;5.444;2023-03-04T03:27:42;102497.28;;;7.57;54.54
48614;BME280;34408;51.426;5.444;2023-03-04T03:30:12;102489.56;;;7.54;54.88
48614;BME280;34408;51.426;5.444;2023-03-04T03:32:40;102485.22;;;7.53;54.82
48614;BME280;34408;51.426;5.444;2023-03-04T03:35:08;102478.19;;;7.51;54.62
48614;BME280;34408;51.426;5.444;2023-03-04T03:37:37;102478.88;;;7.54;54.77
48614;BME280;34408;51.426;5.444;2023-03-04T03:40:06;102486.75;;;7.55;54.46
48614;BME280;34408;51.426;5.444;2023-03-04T03:42:34;102484.91;;;7.56;55.04
48614;BME280;34408;51.426;5.444;2023-03-04T03:45:02;102478.56;;;7.57;55.20
48614;BME280;34408;51.426;5.444;2023-03-04T03:47:30;102478.72;;;7.55;54.38
48614;BME280;34408;51.426;5.444;2023-03-04T03:49:58;102477.88;;;7.55;55.14
48614;BME280;34408;51.426;5.444;2023-03-04T03:52:26;102481.72;;;7.52;54.93
48614;BME280;34408;51.426;5.444;2023-03-04T03:54:55;102474.34;;;7.54;54.72
48614;BME280;34408;51.426;5.444;2023-03-04T03:57:22;102478.88;;;7.54;54.77
48614;BME280;34408;51.426;5.444;2023-03-04T03:59:50;102485.06;;;7.54;55.23
48614;BME280;34408;51.426;5.444;2023-03-04T04:02:18;102483.22;;;7.55;55.30
48614;BME280;34408;51.426;5.444;2023-03-04T04:04:46;102481.56;;;7.54;55.37
48614;BME280;34408;51.426;5.444;2023-03-04T04:07:13;102492.25;;;7.54;55.05
48614;BME280;34408;51.426;5.444;2023-03-04T04:09:41;102476.19;;;7.54;55.49
48614;BME280;34408;51.426;5.444;2023-03-04T04:12:12;102486.22;;;7.51;54.68
48614;BME280;34408;51.426;5.444;2023-03-04T04:14:41;102478.19;;;7.51;54.99
48614;BME280;34408;51.426;5.444;2023-03-04T04:17:09;102484.22;;;7.54;54.91
48614;BME280;34408;51.426;5.444;2023-03-04T04:19:36;102484.22;;;7.54;55.05
48614;BME280;34408;51.426;5.444;2023-03-04T04:22:06;102480.88;;;7.51;55.17
48614;BME280;34408;51.426;5.444;2023-03-04T04:24:34;102481.19;;;7.48;54.97
48614;BME280;34408;51.426;5.444;2023-03-04T04:27:02;102486.53;;;7.48;55.50
48614;BME280;34408;51.426;5.444;2023-03-04T04:29:32;102485.53;;;7.49;55.35
48614;BME280;34408;51.426;5.444;2023-03-04T04:31:59;102479.34;;;7.49;55.61
48614;BME280;34408;51.426;5.444;2023-03-04T04:34:27;102485.53;;;7.49;55.81
48614;BME280;34408;51.426;5.444;2023-03-04T04:36:55;102493.56;;;7.49;55.38
48614;BME280;34408;51.426;5.444;2023-03-04T04:39:23;102486.72;;;7.47;55.51
48614;BME280;34408;51.426;5.444;2023-03-04T04:41:50;102496.41;;;7.48;55.55
48614;BME280;34408;51.426;5.444;2023-03-04T04:44:18;102492.91;;;7.47;55.75
48614;BME280;34408;51.426;5.444;2023-03-04T04:46:47;102493.72;;;7.48;55.48
48614;BME280;34408;51.426;5.444;2023-03-04T04:49:15;102494.72;;;7.47;55.17
48614;BME280;34408;51.426;5.444;2023-03-04T04:51:43;102494.72;;;7.47;55.17
48614;BME280;34408;51.426;5.444;2023-03-04T04:54:12;102496.56;;;7.46;55.22
48614;BME280;34408;51.426;5.444;2023-03-04T04:56:41;102489.69;;;7.44;55.31
48614;BME280;34408;51.426;5.444;2023-03-04T04:59:08;102496.56;;;7.46;55.11
48614;BME280;34408;51.426;5.444;2023-03-04T05:01:36;102500.25;;;7.45;54.81
48614;BME280;34408;51.426;5.444;2023-03-04T05:04:05;102497.72;;;7.44;54.69
48614;BME280;34408;51.426;5.444;2023-03-04T05:06:33;102493.53;;;7.41;54.87
48614;BME280;34408;51.426;5.444;2023-03-04T05:09:01;102493.38;;;7.43;55.32
48614;BME280;34408;51.426;5.444;2023-03-04T05:11:29;102499.88;;;7.40;55.02
48614;BME280;34408;51.426;5.444;2023-03-04T05:13:57;102499.22;;;7.38;55.24
48614;BME280;34408;51.426;5.444;2023-03-04T05:16:25;102497.38;;;7.39;55.50
48614;BME280;34408;51.426;5.444;2023-03-04T05:18:53;102491.19;;;7.38;55.14
48614;BME280;34408;51.426;5.444;2023-03-04T05:21:22;102492.19;;;7.37;55.69
48614;BME280;34408;51.426;5.444;2023-03-04T05:23:49;102488.00;;;7.35;54.92
48614;BME280;34408;51.426;5.444;2023-03-04T05:26:17;102488.16;;;7.33;55.25
48614;BME280;34408;51.426;5.444;2023-03-04T05:28:45;102491.66;;;7.34;55.03
48614;BME280;34408;51.426;5.444;2023-03-04T05:31:13;102488.31;;;7.32;54.97
48614;BME280;34408;51.426;5.444;2023-03-04T05:33:42;102486.47;;;7.32;55.44
48614;BME280;34408;51.426;5.444;2023-03-04T05:36:09;102494.50;;;7.32;55.27
48614;BME280;34408;51.426;5.444;2023-03-04T05:38:39;102497.19;;;7.32;54.98
48614;BME280;34408;51.426;5.444;2023-03-04T05:41:07;102497.00;;;7.34;55.25
48614;BME280;34408;51.426;5.444;2023-03-04T05:43:35;102504.53;;;7.30;54.84
48614;BME280;34408;51.426;5.444;2023-03-04T05:46:08;102485.09;;;7.20;55.35
48614;BME280;34408;51.426;5.444;2023-03-04T05:48:40;102498.50;;;7.28;55.17
48614;BME280;34408;51.426;5.444;2023-03-04T05:51:07;102506.50;;;7.28;55.67
48614;BME280;34408;51.426;5.444;2023-03-04T05:53:36;102504.84;;;7.27;55.31
48614;BME280;34408;51.426;5.444;2023-03-04T05:56:08;102508.34;;;7.28;55.43
48614;BME280;34408;51.426;5.444;2023-03-04T05:58:36;102495.47;;;7.23;55.44
48614;BME280;34408;51.426;5.444;2023-03-04T06:01:04;102505.84;;;7.26;55.65
48614;BME280;34408;51.426;5.444;2023-03-04T06:03:32;102504.84;;;7.27;55.22
48614;BME280;34408;51.426;5.444;2023-03-04T06:06:00;102507.66;;;7.26;55.33
48614;BME280;34408;51.426;5.444;2023-03-04T06:08:28;102503.31;;;7.25;55.15
48614;BME280;34408;51.426;5.444;2023-03-04T06:10:56;102505.16;;;7.24;55.61
48614;BME280;34408;51.426;5.444;2023-03-04T06:13:26;102508.66;;;7.25;55.13
48614;BME280;34408;51.426;5.444;2023-03-04T06:15:55;102505.16;;;7.24;55.44
48614;BME280;34408;51.426;5.444;2023-03-04T06:18:25;102501.81;;;7.22;55.76
48614;BME280;34408;51.426;5.444;2023-03-04T06:20:55;102496.94;;;7.17;55.34
48614;BME280;34408;51.426;5.444;2023-03-04T06:23:24;102509.50;;;7.25;55.60
48614;BME280;34408;51.426;5.444;2023-03-04T06:25:52;102513.03;;;7.26;55.45
48614;BME280;34408;51.426;5.444;2023-03-04T06:28:20;102516.53;;;7.26;55.36
48614;BME280;34408;51.426;5.444;2023-03-04T06:30:51;102511.97;;;7.18;55.29
48614;BME280;34408;51.426;5.444;2023-03-04T06:33:19;102510.97;;;7.19;55.57
48614;BME280;34408;51.426;5.444;2023-03-04T06:35:47;102519.69;;;7.22;55.75
48614;BME280;34408;51.426;5.444;2023-03-04T06:38:15;102517.31;;;7.18;55.62
48614;BME280;34408;51.426;5.444;2023-03-04T06:40:43;102518.00;;;7.21;56.07
48614;BME280;34408;51.426;5.444;2023-03-04T06:43:11;102522.16;;;7.15;56.32
48614;BME280;34408;51.426;5.444;2023-03-04T06:45:39;102519.63;;;7.13;56.30
48614;BME280;34408;51.426;5.444;2023-03-04T06:48:08;102520.47;;;7.14;56.39
48614;BME280;34408;51.426;5.444;2023-03-04T06:50:36;102520.31;;;7.15;56.57
48614;BME280;34408;51.426;5.444;2023-03-04T06:53:05;102535.72;;;7.22;56.22
48614;BME280;34408;51.426;5.444;2023-03-04T06:55:33;102535.03;;;7.19;56.31
48614;BME280;34408;51.426;5.444;2023-03-04T06:58:01;102531.53;;;7.19;56.84
48614;BME280;34408;51.426;5.444;2023-03-04T07:00:29;102538.41;;;7.22;56.72
48614;BME280;34408;51.426;5.444;2023-03-04T07:02:57;102536.56;;;7.22;56.47
48614;BME280;34408;51.426;5.444;2023-03-04T07:05:26;102533.00;;;7.13;56.85
48614;BME280;34408;51.426;5.444;2023-03-04T07:07:54;102542.22;;;7.19;57.44
48614;BME280;34408;51.426;5.444;2023-03-04T07:10:22;102541.06;;;7.22;56.89
48614;BME280;34408;51.426;5.444;2023-03-04T07:12:50;102544.59;;;7.22;56.74
48614;BME280;34408;51.426;5.444;2023-03-04T07:15:17;102540.06;;;7.23;57.21
48614;BME280;34408;51.426;5.444;2023-03-04T07:17:45;102548.09;;;7.23;57.16
48614;BME280;34408;51.426;5.444;2023-03-04T07:20:13;102549.78;;;7.24;57.17
48614;BME280;34408;51.426;5.444;2023-03-04T07:22:42;102544.44;;;7.24;57.17
48614;BME280;34408;51.426;5.444;2023-03-04T07:25:10;102554.97;;;7.25;56.91
48614;BME280;34408;51.426;5.444;2023-03-04T07:27:38;102550.63;;;7.24;57.68
48614;BME280;34408;51.426;5.444;2023-03-04T07:30:07;102551.63;;;7.23;57.87
48614;BME280;34408;51.426;5.444;2023-03-04T07:32:36;102552.44;;;7.24;57.55
48614;BME280;34408;51.426;5.444;2023-03-04T07:35:05;102555.97;;;7.24;57.58
48614;BME280;34408;51.426;5.444;2023-03-04T07:37:33;102551.44;;;7.25;57.98
48614;BME280;34408;51.426;5.444;2023-03-04T07:40:02;102566.34;;;7.27;57.76
48614;BME280;34408;51.426;5.444;2023-03-04T07:42:30;102567.34;;;7.26;57.97
48614;BME280;34408;51.426;5.444;2023-03-04T07:44:58;102562.84;;;7.27;58.11
48614;BME280;34408;51.426;5.444;2023-03-04T07:47:27;102556.97;;;7.23;58.12
48614;BME280;34408;51.426;5.444;2023-03-04T07:49:55;102572.91;;;7.33;58.33
48614;BME280;34408;51.426;5.444;2023-03-04T07:52:22;102577.13;;;7.43;57.74
48614;BME280;34408;51.426;5.444;2023-03-04T07:54:50;102569.78;;;7.45;57.44
48614;BME280;34408;51.426;5.444;2023-03-04T07:57:19;102571.47;;;7.46;57.81
48614;BME280;34408;51.426;5.444;2023-03-04T07:59:47;102574.16;;;7.46;58.16
48614;BME280;34408;51.426;5.444;2023-03-04T08:02:15;102575.16;;;7.45;58.58
48614;BME280;34408;51.426;5.444;2023-03-04T08:04:42;102578.97;;;7.43;58.82
48614;BME280;34408;51.426;5.444;2023-03-04T08:07:10;102577.13;;;7.43;58.29
48614;BME280;34408;51.426;5.444;2023-03-04T08:09:38;102579.28;;;7.40;58.92
48614;BME280;34408;51.426;5.444;2023-03-04T08:12:06;102586.41;;;7.57;58.23
48614;BME280;34408;51.426;5.444;2023-03-04T08:14:35;102581.50;;;7.78;58.16
48614;BME280;34408;51.426;5.444;2023-03-04T08:17:03;102578.19;;;7.93;57.44
48614;BME280;34408;51.426;5.444;2023-03-04T08:19:31;102577.59;;;8.15;56.72
48614;BME280;34408;51.426;5.444;2023-03-04T08:21:58;102577.81;;;8.30;55.85
48614;BME280;34408;51.426;5.444;2023-03-04T08:24:27;102578.69;;;8.46;55.50
48614;BME280;34408;51.426;5.444;2023-03-04T08:26:55;102579.72;;;8.62;54.79
48614;BME280;34408;51.426;5.444;2023-03-04T08:29:24;102578.69;;;8.71;54.81
48614;BME280;34408;51.426;5.444;2023-03-04T08:31:54;102582.41;;;8.62;55.47
48614;BME280;34408;51.426;5.444;2023-03-04T08:34:24;102575.69;;;8.50;55.80
48614;BME280;34408;51.426;5.444;2023-03-04T08:36:52;102584.38;;;8.35;56.00
48614;BME280;34408;51.426;5.444;2023-03-04T08:39:20;102582.13;;;8.23;57.19
48614;BME280;34408;51.426;5.444;2023-03-04T08:41:48;102582.59;;;8.10;56.69
48614;BME280;34408;51.426;5.444;2023-03-04T08:44:16;102586.59;;;7.98;57.29
48614;BME280;34408;51.426;5.444;2023-03-04T08:46:43;102581.38;;;7.88;58.19
48614;BME280;34408;51.426;5.444;2023-03-04T08:49:13;102583.53;;;7.84;57.84
48614;BME280;34408;51.426;5.444;2023-03-04T08:51:41;102578.50;;;7.81;57.94
48614;BME280;34408;51.426;5.444;2023-03-04T08:54:10;102580.50;;;7.79;57.77
48614;BME280;34408;51.426;5.444;2023-03-04T08:56:39;102578.13;;;7.76;58.13
48614;BME280;34408;51.426;5.444;2023-03-04T08:59:07;102581.81;;;7.75;58.36
48614;BME280;34408;51.426;5.444;2023-03-04T09:01:35;102583.44;;;7.68;58.20
48614;BME280;34408;51.426;5.444;2023-03-04T09:04:03;102576.75;;;7.64;59.02
48614;BME280;34408;51.426;5.444;2023-03-04T09:06:32;102576.75;;;7.64;58.00
48614;BME280;34408;51.426;5.444;2023-03-04T09:08:59;102580.25;;;7.65;58.75
48614;BME280;34408;51.426;5.444;2023-03-04T09:11:27;102578.41;;;7.65;59.29
48614;BME280;34408;51.426;5.444;2023-03-04T09:13:55;102574.06;;;7.64;58.39
48614;BME280;34408;51.426;5.444;2023-03-04T09:16:23;102572.56;;;7.62;58.35
48614;BME280;34408;51.426;5.444;2023-03-04T09:18:51;102571.34;;;7.56;59.16
48614;BME280;34408;51.426;5.444;2023-03-04T09:21:19;102566.00;;;7.56;59.50
48614;BME280;34408;51.426;5.444;2023-03-04T09:23:48;102566.31;;;7.53;59.17
48614;BME280;34408;51.426;5.444;2023-03-04T09:26:19;102566.97;;;7.47;59.24
48614;BME280;34408;51.426;5.444;2023-03-04T09:28:49;102560.78;;;7.46;59.79
48614;BME280;34408;51.426;5.444;2023-03-04T09:31:18;102567.97;;;7.46;59.52
48614;BME280;34408;51.426;5.444;2023-03-04T09:33:47;102562.25;;;7.41;60.04
48614;BME280;34408;51.426;5.444;2023-03-04T09:36:15;102563.41;;;7.38;59.28
48614;BME280;34408;51.426;5.444;2023-03-04T09:38:43;102557.38;;;7.36;60.24
48614;BME280;34408;51.426;5.444;2023-03-04T09:41:16;102567.91;;;7.38;59.68
48614;BME280;34408;51.426;5.444;2023-03-04T09:43:46;102571.94;;;7.42;59.85
48614;BME280;34408;51.426;5.444;2023-03-04T09:46:17;102571.94;;;7.42;60.21
48614;BME280;34408;51.426;5.444;2023-03-04T09:48:51;102554.75;;;7.44;60.08
48614;BME280;34408;51.426;5.444;2023-03-04T09:51:21;102557.25;;;7.46;59.65
48614;BME280;34408;51.426;5.444;2023-03-04T09:54:04;102548.75;;;7.50;59.54
48614;BME280;34408;51.426;5.444;2023-03-04T09:56:37;102557.81;;;7.58;59.78
48614;BME280;34408;51.426;5.444;2023-03-04T09:59:13;102558.34;;;7.61;60.04
48614;BME280;34408;51.426;5.444;2023-03-04T10:01:45;102559.84;;;7.64;60.00
48614;BME280;34408;51.426;5.444;2023-03-04T10:04:17;102558.38;;;7.69;59.59
48614;BME280;34408;51.426;5.444;2023-03-04T10:06:48;102555.69;;;7.69;59.77
48614;BME280;34408;51.426;5.444;2023-03-04T10:09:22;102545.84;;;7.70;60.07
48614;BME280;34408;51.426;5.444;2023-03-04T10:12:00;102550.03;;;7.72;59.86
48614;BME280;34408;51.426;5.444;2023-03-04T10:14:31;102549.03;;;7.73;60.21
48614;BME280;34408;51.426;5.444;2023-03-04T10:17:06;102547.34;;;7.72;59.52
48614;BME280;34408;51.426;5.444;2023-03-04T10:20:00;102547.66;;;7.69;59.45
48614;BME280;34408;51.426;5.444;2023-03-04T10:22:34;102546.31;;;7.65;60.25
48614;BME280;34408;51.426;5.444;2023-03-04T10:25:15;102536.41;;;7.58;60.06
48614;BME280;34408;51.426;5.444;2023-03-04T10:27:50;102552.81;;;7.63;60.32
48614;BME280;34408;51.426;5.444;2023-03-04T10:30:25;102555.97;;;7.58;60.62
48614;BME280;34408;51.426;5.444;2023-03-04T10:32:57;102550.47;;;7.60;60.68
48614;BME280;34408;51.426;5.444;2023-03-04T10:35:26;102539.13;;;7.66;59.79
48614;BME280;34408;51.426;5.444;2023-03-04T10:38:01;102537.63;;;7.71;59.46
48614;BME280;34408;51.426;5.444;2023-03-04T10:40:37;102538.47;;;7.72;59.51
48614;BME280;34408;51.426;5.444;2023-03-04T10:43:13;102530.28;;;7.73;60.14
48614;BME280;34408;51.426;5.444;2023-03-04T10:45:41;102535.47;;;7.75;59.40
48614;BME280;34408;51.426;5.444;2023-03-04T10:48:18;102531.47;;;7.79;59.57
48614;BME280;34408;51.426;5.444;2023-03-04T10:50:46;102528.31;;;7.83;59.22
48614;BME280;34408;51.426;5.444;2023-03-04T10:53:28;102527.16;;;7.86;59.58
48614;BME280;34408;51.426;5.444;2023-03-04T10:55:58;102535.19;;;7.86;59.71
48614;BME280;34408;51.426;5.444;2023-03-04T10:58:29;102531.16;;;7.82;58.65
48614;BME280;34408;51.426;5.444;2023-03-04T11:01:02;102529.31;;;7.82;59.10
48614;BME280;34408;51.426;5.444;2023-03-04T11:03:33;102525.81;;;7.82;58.70
48614;BME280;34408;51.426;5.444;2023-03-04T11:06:09;102527.13;;;7.78;58.82
48614;BME280;34408;51.426;5.444;2023-03-04T11:08:38;102521.94;;;7.76;58.78
48614;BME280;34408;51.426;5.444;2023-03-04T11:11:20;102508.38;;;7.70;59.06
48614;BME280;34408;51.426;5.444;2023-03-04T11:13:52;102518.78;;;7.81;58.79
48614;BME280;34408;51.426;5.444;2023-03-04T11:16:25;102513.41;;;7.81;59.20
48614;BME280;34408;51.426;5.444;2023-03-04T11:18:57;102526.81;;;7.81;59.31
48614;BME280;34408;51.426;5.444;2023-03-04T11:21:29;102495.66;;;7.72;59.38
48614;BME280;34408;51.426;5.444;2023-03-04T11:24:00;102509.75;;;7.82;59.90
48614;BME280;34408;51.426;5.444;2023-03-04T11:26:35;102505.38;;;7.81;59.72
48614;BME280;34408;51.426;5.444;2023-03-04T11:29:13;102507.38;;;7.79;59.51
48614;BME280;34408;51.426;5.444;2023-03-04T11:31:46;102507.22;;;7.80;60.01
48614;BME280;34408;51.426;5.444;2023-03-04T11:34:31;102506.91;;;7.83;59.51
48614;BME280;34408;51.426;5.444;2023-03-04T11:37:05;102504.75;;;7.87;59.52
48614;BME280;34408;51.426;5.444;2023-03-04T11:39:36;102506.09;;;7.91;59.66
48614;BME280;34408;51.426;5.444;2023-03-04T11:42:12;102495.91;;;8.03;59.35
48614;BME280;34408;51.426;5.444;2023-03-04T11:44:45;102499.59;;;8.18;59.20
48614;BME280;34408;51.426;5.444;2023-03-04T11:47:32;102493.09;;;8.29;59.61
48614;BME280;34408;51.426;5.444;2023-03-04T11:50:10;102492.47;;;8.51;59.07
48614;BME280;34408;51.426;5.444;2023-03-04T11:53:00;102484.53;;;8.74;58.75
48614;BME280;34408;51.426;5.444;2023-03-04T11:55:37;102488.38;;;8.88;57.71
48614;BME280;34408;51.426;5.444;2023-03-04T11:58:33;102486.19;;;8.91;57.77
48614;BME280;34408;51.426;5.444;2023-03-04T12:01:07;102483.34;;;8.85;58.39
48614;BME280;34408;51.426;5.444;2023-03-04T12:03:49;102476.50;;;8.74;59.11
48614;BME280;34408;51.426;5.444;2023-03-04T12:06:28;102463.81;;;8.60;58.85
48614;BME280;34408;51.426;5.444;2023-03-04T12:09:02;102467.34;;;8.52;59.70
48614;BME280;34408;51.426;5.444;2023-03-04T12:11:43;102462.50;;;8.47;59.66
48614;BME280;34408;51.426;5.444;2023-03-04T12:14:22;102463.31;;;8.40;60.62
48614;BME280;34408;51.426;5.444;2023-03-04T12:17:12;102459.78;;;8.31;61.27
48614;BME280;34408;51.426;5.444;2023-03-04T12:20:06;102458.09;;;8.22;61.36
48614;BME280;34408;51.426;5.444;2023-03-04T12:22:43;102451.06;;;8.13;61.67
48614;BME280;34408;51.426;5.444;2023-03-04T12:25:28;102451.56;;;8.08;61.81
48614;BME280;34408;51.426;5.444;2023-03-04T12:28:07;102440.50;;;8.03;62.47
48614;BME280;34408;51.426;5.444;2023-03-04T12:30:54;102430.81;;;8.02;62.41
48614;BME280;34408;51.426;5.444;2023-03-04T12:33:33;102427.63;;;8.07;62.46
48614;BME280;34408;51.426;5.444;2023-03-04T12:36:12;102420.28;;;8.09;62.42
48614;BME280;34408;51.426;5.444;2023-03-04T12:38:58;102418.94;;;8.13;62.06
48614;BME280;34408;51.426;5.444;2023-03-04T12:41:41;102411.56;;;8.15;61.95
48614;BME280;34408;51.426;5.444;2023-03-04T12:44:14;102407.22;;;8.22;61.72
48614;BME280;34408;51.426;5.444;2023-03-04T12:46:50;102407.72;;;8.26;61.83
48614;BME280;34408;51.426;5.444;2023-03-04T12:49:43;102408.88;;;8.31;61.55
48614;BME280;34408;51.426;5.444;2023-03-04T12:52:15;102403.22;;;8.34;61.15
48614;BME280;34408;51.426;5.444;2023-03-04T12:54:49;102397.88;;;8.34;61.68
48614;BME280;34408;51.426;5.444;2023-03-04T12:57:23;102395.50;;;8.31;62.17
48614;BME280;34408;51.426;5.444;2023-03-04T12:59:56;102398.69;;;8.35;61.88
48614;BME280;34408;51.426;5.444;2023-03-04T13:02:38;102390.97;;;8.32;62.13
48614;BME280;34408;51.426;5.444;2023-03-04T13:05:25;102383.94;;;8.31;61.61
48614;BME280;34408;51.426;5.444;2023-03-04T13:08:02;102384.78;;;8.31;61.84
48614;BME280;34408;51.426;5.444;2023-03-04T13:10:35;102386.31;;;8.34;61.99
48614;BME280;34408;51.426;5.444;2023-03-04T13:13:03;102381.63;;;8.36;61.49
48614;BME280;34408;51.426;5.444;2023-03-04T13:15:36;102379.78;;;8.36;62.04
48614;BME280;34408;51.426;5.444;2023-03-04T13:18:31;102378.75;;;8.45;61.75